createdAt,value
2019-03-10T00:00:07.199Z,99105.80
2019-03-10T00:02:37.561Z,99101.00
2019-03-10T00:05:08.936Z,99106.59
2019-03-10T00:07:47.110Z,99106.59
2019-03-10T00:10:19.752Z,99103.88
2019-03-10T00:12:55.318Z,99101.75
2019-03-10T00:15:29.523Z,99100.96
2019-03-10T00:18:00.743Z,99104.66
2019-03-10T00:20:34.096Z,99097.89
2019-03-10T00:23:06.279Z,99101.92
2019-03-10T00:25:38.670Z,99091.98
2019-03-10T00:28:17.498Z,99091.98
2019-03-10T00:30:48.592Z,99095.68
2019-03-10T00:33:25.326Z,99078.59
2019-03-10T00:35:59.533Z,99078.59
2019-03-10T00:39:13.118Z,99080.68
2019-03-10T00:42:18.425Z,99080.68
2019-03-10T00:45:30.129Z,99074.38
2019-03-10T00:48:37.727Z,99081.08
2019-03-10T00:51:44.878Z,99075.50
2019-03-10T00:54:15.020Z,99064.78
2019-03-10T00:56:45.170Z,99064.78
2019-03-10T00:59:18.196Z,99065.53
2019-03-10T01:01:48.367Z,99065.53
2019-03-10T01:04:18.473Z,99066.52
2019-03-10T01:06:48.793Z,99066.39
2019-03-10T01:09:21.726Z,99059.51
2019-03-10T01:11:52.612Z,99068.80
2019-03-10T01:14:27.068Z,99068.80
2019-03-10T01:17:03.319Z,99071.89
2019-03-10T01:19:37.082Z,99074.67
2019-03-10T01:22:08.893Z,99079.00
2019-03-10T01:24:40.816Z,99076.89
2019-03-10T01:27:13.035Z,99012.84
2019-03-10T01:29:44.047Z,99064.70
2019-03-10T01:32:43.398Z,99060.98
2019-03-10T01:35:39.737Z,99055.91
2019-03-10T01:38:10.197Z,99060.64
2019-03-10T01:40:40.068Z,99041.38
2019-03-10T01:43:11.235Z,99019.03
2019-03-10T01:45:43.447Z,99019.03
2019-03-10T01:48:14.227Z,99026.47
2019-03-10T01:50:45.489Z,99027.25
2019-03-10T01:53:25.197Z,99008.02
2019-03-10T01:55:48.621Z,99021.08
2019-03-10T01:58:20.032Z,99021.08
2019-03-10T02:00:50.630Z,99013.58
2019-03-10T02:03:22.130Z,99013.58
2019-03-10T02:05:53.271Z,99027.00
2019-03-10T02:08:25.704Z,99022.19
2019-03-10T02:10:58.727Z,99014.42
2019-03-10T02:13:29.814Z,99005.41
2019-03-10T02:16:01.637Z,99005.41
2019-03-10T02:18:33.149Z,99002.05
2019-03-10T02:21:06.529Z,99000.31
2019-03-10T02:23:38.267Z,99000.31
2019-03-10T02:26:09.806Z,98973.66
2019-03-10T02:28:41.292Z,98973.66
2019-03-10T02:31:11.342Z,98974.59
2019-03-10T02:33:41.689Z,98965.25
2019-03-10T02:36:13.023Z,98957.55
2019-03-10T02:38:43.693Z,98961.06
2019-03-10T02:41:15.507Z,98952.32
2019-03-10T02:43:46.231Z,98952.32
2019-03-10T02:46:17.364Z,98938.83
2019-03-10T02:48:50.962Z,98939.24
2019-03-10T02:51:22.050Z,98936.36
2019-03-10T02:53:52.903Z,98936.36
2019-03-10T02:56:23.265Z,98914.16
2019-03-10T02:58:55.507Z,98917.00
2019-03-10T03:01:27.675Z,98920.66
2019-03-10T03:03:58.814Z,98915.28
2019-03-10T03:06:30.656Z,98915.28
2019-03-10T03:09:00.872Z,98887.86
2019-03-10T03:11:31.878Z,98887.86
2019-03-10T03:14:03.141Z,98884.35
2019-03-10T03:16:33.319Z,98885.07
2019-03-10T03:19:03.333Z,98885.07
2019-03-10T03:21:42.872Z,98877.12
2019-03-10T03:24:04.841Z,98867.28
2019-03-10T03:26:35.067Z,98865.63
2019-03-10T03:29:05.063Z,98871.16
2019-03-10T03:31:35.165Z,98875.76
2019-03-10T03:34:05.750Z,98860.84
2019-03-10T03:36:36.016Z,98860.84
2019-03-10T03:39:18.955Z,98851.49
2019-03-10T03:41:48.958Z,98851.49
2019-03-10T03:44:19.145Z,98847.63
2019-03-10T03:46:49.026Z,98829.99
2019-03-10T03:49:19.265Z,98829.99
2019-03-10T03:51:50.218Z,98813.63
2019-03-10T03:54:20.528Z,98813.63
2019-03-10T03:56:50.807Z,98816.53
2019-03-10T03:59:20.893Z,98811.97
2019-03-10T04:02:09.944Z,98801.14
2019-03-10T04:04:40.135Z,98795.70
2019-03-10T04:07:10.304Z,98789.42
2019-03-10T04:09:40.669Z,98788.50
2019-03-10T04:12:10.543Z,98789.35
2019-03-10T04:14:40.454Z,98773.95
2019-03-10T04:17:10.420Z,98747.83
2019-03-10T04:19:40.315Z,98771.23
2019-03-10T04:22:10.216Z,98773.16
2019-03-10T04:24:40.102Z,98769.55
2019-03-10T04:27:10.023Z,98769.75
2019-03-10T04:29:40.377Z,98778.19
2019-03-10T04:32:10.589Z,98773.89
2019-03-10T04:34:40.959Z,98771.87
2019-03-10T04:37:10.871Z,98765.19
2019-03-10T04:39:40.858Z,98754.22
2019-03-10T04:42:10.820Z,98750.67
2019-03-10T04:44:41.007Z,98757.48
2019-03-10T04:47:10.919Z,98748.20
2019-03-10T04:49:40.877Z,98749.20
2019-03-10T04:52:10.802Z,98743.18
2019-03-10T04:54:59.708Z,98742.74
2019-03-10T04:57:29.582Z,98735.63
2019-03-10T04:59:59.520Z,98740.79
2019-03-10T05:02:29.528Z,98740.79
2019-03-10T05:04:59.465Z,98734.13
2019-03-10T05:07:29.531Z,98723.09
2019-03-10T05:09:59.533Z,98722.44
2019-03-10T05:12:29.741Z,98717.48
2019-03-10T05:14:59.624Z,98706.38
2019-03-10T05:17:29.842Z,98706.38
2019-03-10T05:20:00.170Z,98704.55
2019-03-10T05:22:30.198Z,98699.31
2019-03-10T05:25:00.077Z,98690.84
2019-03-10T05:27:30.132Z,98691.31
2019-03-10T05:30:00.146Z,98679.04
2019-03-10T05:32:30.083Z,98681.27
2019-03-10T05:35:00.846Z,98681.27
2019-03-10T05:37:31.874Z,98671.74
2019-03-10T05:40:01.915Z,98672.20
2019-03-10T05:42:32.040Z,98664.13
2019-03-10T05:45:01.882Z,98662.53
2019-03-10T05:47:31.772Z,98648.61
2019-03-10T05:50:01.676Z,98640.31
2019-03-10T05:52:31.565Z,98625.98
2019-03-10T05:55:01.408Z,98617.17
2019-03-10T05:57:31.330Z,98615.91
2019-03-10T06:00:01.212Z,98616.80
2019-03-10T06:02:31.361Z,98611.31
2019-03-10T06:05:01.307Z,98615.68
2019-03-10T06:07:31.235Z,98616.16
2019-03-10T06:10:01.288Z,98612.80
2019-03-10T06:12:31.110Z,98604.78
2019-03-10T06:15:01.099Z,98591.59
2019-03-10T06:17:31.194Z,98593.36
2019-03-10T06:20:01.026Z,98594.95
2019-03-10T06:22:31.185Z,98591.03
2019-03-10T06:25:01.341Z,98585.84
2019-03-10T06:27:31.448Z,98612.50
2019-03-10T06:30:01.690Z,98580.63
2019-03-10T06:32:32.968Z,98578.44
2019-03-10T06:35:03.258Z,98573.63
2019-03-10T06:37:34.338Z,98575.78
2019-03-10T06:40:04.548Z,98571.61
2019-03-10T06:42:34.666Z,98566.34
2019-03-10T06:45:04.897Z,98561.61
2019-03-10T06:47:34.755Z,98539.79
2019-03-10T06:50:05.042Z,98539.79
2019-03-10T06:52:34.917Z,98548.21
2019-03-10T06:55:05.029Z,98548.21
2019-03-10T06:57:37.925Z,98539.58
2019-03-10T07:00:09.629Z,98530.14
2019-03-10T07:02:40.513Z,98521.88
2019-03-10T07:05:12.226Z,98457.78
2019-03-10T07:07:42.344Z,98457.78
2019-03-10T07:10:13.883Z,98498.86
2019-03-10T07:12:43.935Z,98498.86
2019-03-10T07:15:14.362Z,98492.11
2019-03-10T07:17:44.798Z,98478.70
2019-03-10T07:20:16.876Z,98491.67
2019-03-10T07:22:47.027Z,98478.09
2019-03-10T07:25:17.403Z,98472.69
2019-03-10T07:28:10.613Z,98472.69
2019-03-10T07:30:45.517Z,98470.77
2019-03-10T07:33:52.851Z,98470.77
2019-03-10T07:36:41.461Z,98460.73
2019-03-10T07:39:30.673Z,98450.11
2019-03-10T07:42:25.012Z,98454.13
2019-03-10T07:45:17.808Z,98454.13
2019-03-10T07:48:06.644Z,98446.80
2019-03-10T07:50:57.900Z,98428.92
2019-03-10T07:53:46.909Z,98422.83
2019-03-10T07:56:45.272Z,98415.62
2019-03-10T07:59:32.529Z,98415.62
2019-03-10T08:02:28.211Z,98414.52
2019-03-10T08:05:15.609Z,98395.98
2019-03-10T08:08:18.706Z,98392.71
2019-03-10T08:11:04.639Z,98392.31
2019-03-10T08:14:00.573Z,98306.52
2019-03-10T08:17:04.859Z,98306.52
2019-03-10T08:20:05.185Z,98358.34
2019-03-10T08:22:46.005Z,98353.59
2019-03-10T08:25:34.640Z,98343.14
2019-03-10T08:28:20.278Z,98337.86
2019-03-10T08:31:10.151Z,98326.16
2019-03-10T08:33:58.949Z,98324.83
2019-03-10T08:36:54.109Z,98312.45
2019-03-10T08:39:41.272Z,98297.48
2019-03-10T08:42:25.581Z,98294.73
2019-03-10T08:45:08.533Z,98287.33
2019-03-10T08:47:58.111Z,98274.25
2019-03-10T08:51:00.566Z,98266.86
2019-03-10T08:53:52.230Z,98198.87
2019-03-10T08:56:56.943Z,98252.34
2019-03-10T08:59:43.154Z,98247.11
2019-03-10T09:02:31.362Z,98247.30
2019-03-10T09:05:20.159Z,98225.30
2019-03-10T09:08:13.574Z,98219.39
2019-03-10T09:11:36.531Z,98200.53
2019-03-10T09:14:23.629Z,98177.91
2019-03-10T09:17:10.410Z,98170.52
2019-03-10T09:20:11.289Z,98153.54
2019-03-10T09:22:55.880Z,98090.41
2019-03-10T09:25:52.182Z,98150.02
2019-03-10T09:28:34.459Z,98142.54
2019-03-10T09:31:43.216Z,98125.84
2019-03-10T09:34:30.556Z,98121.08
2019-03-10T09:37:12.040Z,98107.74
2019-03-10T09:40:07.380Z,98098.05
2019-03-10T09:42:57.365Z,98089.78
2019-03-10T09:45:52.376Z,98092.27
2019-03-10T09:48:38.044Z,98070.23
2019-03-10T09:51:35.721Z,98058.10
2019-03-10T09:54:26.679Z,98057.31
2019-03-10T09:57:14.917Z,98030.87
2019-03-10T10:00:08.798Z,98046.64
2019-03-10T10:02:58.336Z,98023.19
2019-03-10T10:05:54.456Z,98021.83
2019-03-10T10:08:48.223Z,98011.92
2019-03-10T10:11:37.039Z,97943.16
2019-03-10T10:14:30.365Z,97997.69
2019-03-10T10:17:24.692Z,97996.63
2019-03-10T10:20:13.338Z,97992.48
2019-03-10T10:23:12.592Z,97974.84
2019-03-10T10:25:50.839Z,97970.02
2019-03-10T10:28:38.782Z,97962.02
2019-03-10T10:31:29.153Z,97957.31
2019-03-10T10:34:24.275Z,97958.41
2019-03-10T10:37:28.141Z,97951.35
2019-03-10T10:40:16.306Z,97931.42
2019-03-10T10:43:05.149Z,97940.86
2019-03-10T10:45:53.659Z,97935.62
2019-03-10T10:48:29.453Z,97918.52
2019-03-10T10:51:23.214Z,97908.75
2019-03-10T10:54:13.808Z,97834.84
2019-03-10T10:57:10.769Z,97830.80
2019-03-10T10:59:56.749Z,97881.11
2019-03-10T11:02:36.924Z,97881.95
2019-03-10T11:05:24.808Z,97877.27
2019-03-10T11:08:09.817Z,97870.50
2019-03-10T11:11:07.108Z,97867.00
2019-03-10T11:14:04.764Z,97878.41
2019-03-10T11:16:52.380Z,97885.81
2019-03-10T11:19:41.365Z,97878.88
2019-03-10T11:22:18.743Z,97855.30
2019-03-10T11:27:54.709Z,97851.05
2019-03-10T11:30:56.341Z,97839.98
2019-03-10T11:33:54.070Z,97814.45
2019-03-10T11:36:50.814Z,97802.61
2019-03-10T11:39:45.486Z,97735.13
2019-03-10T11:42:36.056Z,97782.10
2019-03-10T11:45:27.082Z,97806.08
2019-03-10T11:48:07.475Z,97809.19
2019-03-10T11:51:04.290Z,97789.84
2019-03-10T11:53:58.614Z,97731.94
2019-03-10T11:56:52.345Z,97777.95
2019-03-10T11:59:52.428Z,97760.76
2019-03-10T12:02:48.210Z,97766.80
2019-03-10T12:05:43.169Z,97764.45
2019-03-10T12:08:40.504Z,97689.61
2019-03-10T12:11:13.137Z,97734.88
2019-03-10T12:13:46.145Z,97716.30
2019-03-10T12:16:22.036Z,97723.52
2019-03-10T12:18:57.496Z,97719.77
2019-03-10T12:21:29.539Z,97716.23
2019-03-10T12:24:00.817Z,97706.44
2019-03-10T12:26:35.847Z,97702.56
2019-03-10T12:29:04.585Z,97688.02
2019-03-10T12:31:40.915Z,97691.72
2019-03-10T12:34:14.052Z,97685.20
2019-03-10T12:36:45.254Z,97681.58
2019-03-10T12:39:20.733Z,97672.78
2019-03-10T12:41:58.685Z,97670.34
2019-03-10T12:44:30.443Z,97669.77
2019-03-10T12:47:02.737Z,97669.53
2019-03-10T12:49:35.215Z,97667.95
2019-03-10T12:52:08.415Z,97658.14
2019-03-10T12:54:40.638Z,97653.91
2019-03-10T12:57:12.423Z,97664.55
2019-03-10T12:59:44.002Z,97659.91
2019-03-10T13:02:19.990Z,97666.06
2019-03-10T13:04:53.615Z,97682.34
2019-03-10T13:07:26.164Z,97652.94
2019-03-10T13:09:58.648Z,97627.06
2019-03-10T13:12:29.854Z,97636.09
2019-03-10T13:15:01.818Z,97645.48
2019-03-10T13:17:37.785Z,97650.67
2019-03-10T13:20:10.171Z,97657.70
2019-03-10T13:22:41.688Z,97637.69
2019-03-10T13:25:15.065Z,97619.74
2019-03-10T13:27:48.226Z,97651.33
2019-03-10T13:30:21.185Z,97671.98
2019-03-10T13:32:56.055Z,97680.98
2019-03-10T13:35:30.470Z,97678.61
2019-03-10T13:38:10.576Z,97666.76
2019-03-10T13:40:43.608Z,97708.12
2019-03-10T13:43:16.981Z,97706.33
2019-03-10T13:45:51.915Z,97613.36
2019-03-10T13:48:23.371Z,97629.59
2019-03-10T13:50:54.879Z,97633.56
2019-03-10T13:53:25.502Z,97643.90
2019-03-10T13:55:57.318Z,97647.91
2019-03-10T13:58:38.945Z,97639.88
2019-03-10T14:01:11.872Z,97641.42
2019-03-10T14:03:43.714Z,97649.28
2019-03-10T14:06:21.529Z,97637.02
2019-03-10T14:08:55.775Z,97627.12
2019-03-10T14:11:34.306Z,97621.64
2019-03-10T14:14:07.196Z,97644.70
2019-03-10T14:16:39.142Z,97599.56
2019-03-10T14:19:14.699Z,97577.05
2019-03-10T14:21:49.944Z,97589.91
2019-03-10T14:24:24.524Z,97572.34
2019-03-10T14:26:57.405Z,97573.89
2019-03-10T14:29:31.807Z,97578.37
2019-03-10T14:32:04.769Z,97577.80
2019-03-10T14:34:36.888Z,97570.47
2019-03-10T14:37:10.230Z,97571.79
2019-03-10T14:39:42.961Z,97575.19
2019-03-10T14:42:17.057Z,97577.49
2019-03-10T14:44:51.973Z,97636.11
2019-03-10T14:47:24.507Z,97626.38
2019-03-10T14:49:57.321Z,97620.55
2019-03-10T14:52:39.488Z,97612.69
2019-03-10T14:55:24.687Z,97637.55
2019-03-10T14:57:58.225Z,97632.03
2019-03-10T15:00:32.410Z,97630.53
2019-03-10T15:03:07.364Z,97624.45
2019-03-10T15:05:41.564Z,97616.81
2019-03-10T15:08:14.152Z,97612.91
2019-03-10T15:10:45.877Z,97607.15
2019-03-10T15:13:17.878Z,97610.54
2019-03-10T15:15:50.400Z,97642.38
2019-03-10T15:18:25.512Z,97663.38
2019-03-10T15:21:03.909Z,97654.47
2019-03-10T15:23:36.744Z,97641.84
2019-03-10T15:26:10.905Z,97632.92
2019-03-10T15:28:42.218Z,97661.05
2019-03-10T15:31:16.822Z,97679.44
2019-03-10T15:33:48.041Z,97715.88
2019-03-10T15:36:25.115Z,97673.92
2019-03-10T15:38:56.369Z,97674.17
2019-03-10T15:41:28.377Z,97663.38
2019-03-10T15:44:01.479Z,97561.05
2019-03-10T15:46:34.713Z,97589.83
2019-03-10T15:49:08.192Z,97696.47
2019-03-10T15:51:40.722Z,97701.22
2019-03-10T15:54:12.430Z,97704.90
2019-03-10T15:56:45.796Z,97694.72
2019-03-10T15:59:24.641Z,97662.76
2019-03-10T16:02:02.876Z,97649.39
2019-03-10T16:04:34.117Z,97591.65
2019-03-10T16:07:12.218Z,97655.22
2019-03-10T16:09:44.959Z,97658.11
2019-03-10T16:12:18.842Z,97662.56
2019-03-10T16:14:52.296Z,97647.63
2019-03-10T16:17:23.815Z,97680.97
2019-03-10T16:19:56.341Z,97673.37
2019-03-10T16:22:27.712Z,97701.46
2019-03-10T16:24:59.364Z,97685.17
2019-03-10T16:27:33.487Z,97712.50
2019-03-10T16:30:07.076Z,97739.00
2019-03-10T16:32:40.404Z,97713.56
2019-03-10T16:35:12.671Z,97738.77
2019-03-10T16:37:45.783Z,97723.81
2019-03-10T16:40:19.671Z,97756.09
2019-03-10T16:42:51.484Z,97735.57
2019-03-10T16:45:24.468Z,97750.27
2019-03-10T16:47:57.793Z,97758.15
2019-03-10T16:50:32.420Z,97761.31
2019-03-10T16:53:03.888Z,97765.23
2019-03-10T16:55:36.572Z,97777.56
2019-03-10T16:58:09.709Z,97698.98
2019-03-10T17:00:42.678Z,97724.09
2019-03-10T17:03:14.982Z,97797.13
2019-03-10T17:05:47.479Z,97789.24
2019-03-10T17:08:18.904Z,97794.46
2019-03-10T17:10:49.654Z,97798.13
2019-03-10T17:13:22.547Z,97809.12
2019-03-10T17:15:54.064Z,97811.20
2019-03-10T17:18:26.269Z,97803.02
2019-03-10T17:21:01.066Z,97834.09
2019-03-10T17:23:37.099Z,97820.42
2019-03-10T17:26:11.599Z,97824.05
2019-03-10T17:28:44.219Z,97830.35
2019-03-10T17:31:18.193Z,97857.59
2019-03-10T17:33:49.080Z,97823.25
2019-03-10T17:36:19.957Z,97848.45
2019-03-10T17:38:52.652Z,97857.32
2019-03-10T17:41:24.460Z,97890.80
2019-03-10T17:43:56.912Z,97873.01
2019-03-10T17:46:29.386Z,97891.86
2019-03-10T17:49:00.384Z,97891.55
2019-03-10T17:51:31.539Z,97901.95
2019-03-10T17:54:06.958Z,97926.40
2019-03-10T17:56:39.252Z,97926.36
2019-03-10T17:59:13.986Z,97899.64
2019-03-10T18:01:45.597Z,97937.31
2019-03-10T18:04:17.765Z,97965.33
2019-03-10T18:06:50.380Z,97950.64
2019-03-10T18:09:23.308Z,97898.78
2019-03-10T18:11:55.292Z,97959.77
2019-03-10T18:14:26.671Z,97950.44
2019-03-10T18:16:57.482Z,98002.19
2019-03-10T18:19:29.358Z,98007.61
2019-03-10T18:22:05.688Z,98000.73
2019-03-10T18:24:40.022Z,98007.62
2019-03-10T18:27:15.734Z,98011.42
2019-03-10T18:29:48.684Z,97975.98
2019-03-10T18:32:19.725Z,98012.05
2019-03-10T18:34:58.234Z,98010.44
2019-03-10T18:37:35.535Z,98025.92
2019-03-10T18:40:13.083Z,98005.39
2019-03-10T18:42:45.851Z,98014.34
2019-03-10T18:45:20.367Z,98057.62
2019-03-10T18:47:53.034Z,98040.44
2019-03-10T18:50:26.588Z,98075.39
2019-03-10T18:52:59.355Z,98089.48
2019-03-10T18:55:31.116Z,98112.48
2019-03-10T18:58:03.189Z,98118.31
2019-03-10T19:00:36.732Z,98122.97
2019-03-10T19:03:08.017Z,98138.55
2019-03-10T19:05:39.759Z,98146.20
2019-03-10T19:08:11.381Z,98152.19
2019-03-10T19:10:44.030Z,98173.84
2019-03-10T19:13:16.692Z,98176.81
2019-03-10T19:15:50.927Z,98231.41
2019-03-10T19:18:25.252Z,98265.96
2019-03-10T19:21:05.295Z,98270.63
2019-03-10T19:23:39.023Z,98305.69
2019-03-10T19:26:15.474Z,98385.20
2019-03-10T19:28:48.100Z,98406.19
2019-03-10T19:31:21.959Z,98406.19
2019-03-10T19:33:53.289Z,98429.59
2019-03-10T19:36:25.295Z,98453.16
2019-03-10T19:38:59.232Z,98495.92
2019-03-10T19:41:31.293Z,98480.23
2019-03-10T19:44:08.370Z,98514.18
2019-03-10T19:46:41.496Z,98530.02
2019-03-10T19:49:14.378Z,98566.50
2019-03-10T19:51:47.680Z,98581.43
2019-03-10T19:54:20.179Z,98616.34
2019-03-10T19:57:07.271Z,98618.83
2019-03-10T19:59:41.533Z,98611.64
2019-03-10T20:02:15.972Z,98619.23
2019-03-10T20:04:47.901Z,98649.72
2019-03-10T20:07:23.334Z,98655.31
2019-03-10T20:09:56.399Z,98675.15
2019-03-10T20:12:29.891Z,98671.97
2019-03-10T20:15:13.215Z,98682.23
2019-03-10T20:17:46.420Z,98694.73
2019-03-10T20:20:18.760Z,98698.27
2019-03-10T20:22:54.088Z,98705.04
2019-03-10T20:25:27.739Z,98717.00
2019-03-10T20:27:59.487Z,98710.03
2019-03-10T20:30:32.302Z,98719.70
2019-03-10T20:33:04.037Z,98734.80
2019-03-10T20:35:36.332Z,98735.23
2019-03-10T20:38:11.700Z,98744.14
2019-03-10T20:40:45.482Z,98747.84
2019-03-10T20:43:18.144Z,98749.35
2019-03-10T20:45:50.427Z,98756.51
2019-03-10T20:48:23.384Z,98768.57
2019-03-10T20:50:56.428Z,98771.91
2019-03-10T20:53:31.507Z,98775.72
2019-03-10T20:56:02.985Z,98789.44
2019-03-10T20:58:35.456Z,98782.72
2019-03-10T21:01:10.282Z,98793.16
2019-03-10T21:03:44.893Z,98804.13
2019-03-10T21:06:18.280Z,98799.22
2019-03-10T21:08:52.856Z,98813.77
2019-03-10T21:11:26.511Z,98819.22
2019-03-10T21:13:58.198Z,98822.86
2019-03-10T21:16:30.586Z,98827.98
2019-03-10T21:19:02.852Z,98831.88
2019-03-10T21:21:35.053Z,98834.39
2019-03-10T21:24:08.246Z,98830.81
2019-03-10T21:26:42.251Z,98839.89
2019-03-10T21:29:14.235Z,98840.77
2019-03-10T21:31:45.761Z,98847.86
2019-03-10T21:34:16.595Z,98856.75
2019-03-10T21:36:47.606Z,98859.20
2019-03-10T21:39:19.167Z,98859.07
2019-03-10T21:41:55.406Z,98867.89
2019-03-10T21:44:29.179Z,98868.42
2019-03-10T21:47:03.221Z,98886.75
2019-03-10T21:49:35.041Z,98895.65
2019-03-10T21:52:06.087Z,98907.42
2019-03-10T21:54:39.419Z,98923.61
2019-03-10T21:57:15.957Z,98927.73
2019-03-10T21:59:46.925Z,98900.38
2019-03-10T22:02:19.770Z,98906.27
2019-03-10T22:04:53.681Z,98811.34
2019-03-10T22:07:25.833Z,98925.36
2019-03-10T22:09:57.054Z,98932.10
2019-03-10T22:12:28.498Z,98925.63
2019-03-10T22:15:00.373Z,98935.06
2019-03-10T22:17:32.346Z,98942.03
2019-03-10T22:20:06.706Z,98944.79
2019-03-10T22:22:48.151Z,98942.70
2019-03-10T22:25:17.221Z,98947.08
2019-03-10T22:27:48.402Z,98945.95
2019-03-10T22:37:22.103Z,98964.06
2019-03-10T22:39:52.950Z,98974.95
2019-03-10T22:42:23.921Z,98976.66
2019-03-10T22:44:54.765Z,98985.41
2019-03-10T22:47:28.834Z,98991.20
2019-03-10T22:50:02.795Z,99000.10
2019-03-10T22:52:33.380Z,98984.36
2019-03-10T22:55:04.750Z,98987.32
2019-03-10T22:57:36.962Z,98994.45
2019-03-10T23:00:19.392Z,99001.57
2019-03-10T23:02:51.456Z,99004.16
2019-03-10T23:05:22.690Z,99012.47
2019-03-10T23:07:56.202Z,99024.50
2019-03-10T23:10:41.421Z,99019.31
2019-03-10T23:13:13.029Z,99030.05
2019-03-10T23:15:44.568Z,99031.27
2019-03-10T23:18:16.284Z,99027.80
2019-03-10T23:20:56.740Z,99059.53
2019-03-10T23:23:25.439Z,99044.28
2019-03-10T23:25:56.827Z,99039.48
2019-03-10T23:28:28.420Z,99048.58
2019-03-10T23:31:00.243Z,99045.26
2019-03-10T23:33:31.334Z,99055.53
2019-03-10T23:36:05.985Z,99048.17
2019-03-10T23:38:36.940Z,99057.24
2019-03-10T23:41:08.925Z,99056.16
2019-03-10T23:43:40.584Z,99053.52
2019-03-10T23:46:11.253Z,99059.16
2019-03-10T23:48:41.801Z,99055.86
2019-03-10T23:51:12.584Z,99045.39
2019-03-10T23:53:43.846Z,99064.13
2019-03-10T23:56:14.684Z,99070.38
2019-03-10T23:58:45.735Z,99066.61
